SBCJ/CKS METAR and TAF weather

Enter ICAO airport designator
Station Type Date Time Source
SBCJ METAR 2019/12/06 21:30 UTC NOAA

SBCJ 062130Z 00000KT CAVOK 24/21 Q1013


Station Type Date Time Source
SBCJ Decoded METAR 2019/12/06 21:30 UTC NOAA

Carajas / Maraba, Brazil (SBCJ) 06-07S 050-00W
Dec 06, 2019 - 04:30 PM EST / 2019.12.06 2130 UTC
Wind: Calm:0
Visibility: greater than 7 mile(s):0
Temperature: 75 F (24 C)
Dew Point: 69 F (21 C)
Relative Humidity: 83%
Pressure (altimeter): 29.91 in. Hg (1013 hPa)
ob: SBCJ 062130Z 00000KT CAVOK 24/21 Q1013
cycle: 21

Station Type Date Time Source
SBCJ TAF 2019/12/06 18:30 UTC NOAA

TAF TAF SBCJ 061515Z 0618/0706 02015KT 9999 TS BKN025 FEW030CB TX29/0618Z TN22/0706Z PROB30 0618/0621 4000 TSRA BKN015 FEW030CB
BECMG 0621/0623 30005KT NSW SCT020 FEW030TCU
BECMG 0701/0703 27005KT SCT012
RMK PGS

Example: see airport list